sensor_id;sensor_type;location;lat;lon;timestamp;temperature;humidity
21734;DHT22;11029;47.820;10.534;2022-10-31T00:01:15;8.50;76.10
21734;DHT22;11029;47.820;10.534;2022-10-31T00:03:42;8.40;76.20
21734;DHT22;11029;47.820;10.534;2022-10-31T00:06:09;8.50;76.40
21734;DHT22;11029;47.820;10.534;2022-10-31T00:08:36;8.50;76.40
21734;DHT22;11029;47.820;10.534;2022-10-31T00:11:03;8.50;76.30
21734;DHT22;11029;47.820;10.534;2022-10-31T00:13:31;8.50;75.60
21734;DHT22;11029;47.820;10.534;2022-10-31T00:15:57;8.50;75.60
21734;DHT22;11029;47.820;10.534;2022-10-31T00:18:24;8.50;75.50
21734;DHT22;11029;47.820;10.534;2022-10-31T00:21:02;8.50;75.30
21734;DHT22;11029;47.820;10.534;2022-10-31T00:23:29;8.40;75.50
21734;DHT22;11029;47.820;10.534;2022-10-31T00:26:03;8.40;76.00
21734;DHT22;11029;47.820;10.534;2022-10-31T00:28:30;8.40;75.50
21734;DHT22;11029;47.820;10.534;2022-10-31T00:31:00;8.40;75.50
21734;DHT22;11029;47.820;10.534;2022-10-31T00:33:27;8.40;75.60
21734;DHT22;11029;47.820;10.534;2022-10-31T00:35:54;8.40;75.50
21734;DHT22;11029;47.820;10.534;2022-10-31T00:38:21;8.30;75.80
21734;DHT22;11029;47.820;10.534;2022-10-31T00:40:48;8.30;76.00
21734;DHT22;11029;47.820;10.534;2022-10-31T00:43:15;8.40;75.50
21734;DHT22;11029;47.820;10.534;2022-10-31T00:45:42;8.30;75.00
21734;DHT22;11029;47.820;10.534;2022-10-31T00:48:09;8.40;75.00
21734;DHT22;11029;47.820;10.534;2022-10-31T00:50:37;8.30;74.70
21734;DHT22;11029;47.820;10.534;2022-10-31T00:53:04;8.30;74.80
21734;DHT22;11029;47.820;10.534;2022-10-31T00:55:30;8.20;74.70
21734;DHT22;11029;47.820;10.534;2022-10-31T00:57:57;8.30;74.20
21734;DHT22;11029;47.820;10.534;2022-10-31T01:00:25;8.20;74.40
21734;DHT22;11029;47.820;10.534;2022-10-31T01:02:51;8.10;74.00
21734;DHT22;11029;47.820;10.534;2022-10-31T01:05:18;8.00;75.50
21734;DHT22;11029;47.820;10.534;2022-10-31T01:07:46;8.00;75.30
21734;DHT22;11029;47.820;10.534;2022-10-31T01:10:13;8.00;75.50
21734;DHT22;11029;47.820;10.534;2022-10-31T01:12:42;8.10;74.00
21734;DHT22;11029;47.820;10.534;2022-10-31T01:15:11;8.00;73.90
21734;DHT22;11029;47.820;10.534;2022-10-31T01:17:39;7.90;74.80
21734;DHT22;11029;47.820;10.534;2022-10-31T01:20:07;7.90;77.50
21734;DHT22;11029;47.820;10.534;2022-10-31T01:22:34;7.90;76.40
21734;DHT22;11029;47.820;10.534;2022-10-31T01:25:01;7.90;75.50
21734;DHT22;11029;47.820;10.534;2022-10-31T01:27:28;7.70;75.80
21734;DHT22;11029;47.820;10.534;2022-10-31T01:29:55;7.70;76.10
21734;DHT22;11029;47.820;10.534;2022-10-31T01:32:22;7.70;76.10
21734;DHT22;11029;47.820;10.534;2022-10-31T01:34:50;7.80;74.50
21734;DHT22;11029;47.820;10.534;2022-10-31T01:37:16;7.80;74.40
21734;DHT22;11029;47.820;10.534;2022-10-31T01:39:43;7.70;75.30
21734;DHT22;11029;47.820;10.534;2022-10-31T01:42:17;7.70;75.50
21734;DHT22;11029;47.820;10.534;2022-10-31T01:44:54;7.70;76.10
21734;DHT22;11029;47.820;10.534;2022-10-31T01:47:43;7.70;75.70
21734;DHT22;11029;47.820;10.534;2022-10-31T01:50:15;7.80;75.40
21734;DHT22;11029;47.820;10.534;2022-10-31T01:52:48;7.70;75.40
21734;DHT22;11029;47.820;10.534;2022-10-31T01:55:24;7.70;75.90
21734;DHT22;11029;47.820;10.534;2022-10-31T01:58:01;7.80;75.10
21734;DHT22;11029;47.820;10.534;2022-10-31T02:00:29;7.80;74.60
21734;DHT22;11029;47.820;10.534;2022-10-31T02:02:56;7.60;75.20
21734;DHT22;11029;47.820;10.534;2022-10-31T02:05:26;7.50;76.10
21734;DHT22;11029;47.820;10.534;2022-10-31T02:10:36;7.40;75.90
21734;DHT22;11029;47.820;10.534;2022-10-31T02:13:05;7.40;75.20
21734;DHT22;11029;47.820;10.534;2022-10-31T02:15:37;7.40;74.90
21734;DHT22;11029;47.820;10.534;2022-10-31T02:18:05;7.40;75.00
21734;DHT22;11029;47.820;10.534;2022-10-31T02:20:45;7.40;74.10
21734;DHT22;11029;47.820;10.534;2022-10-31T02:28:58;7.40;75.40
21734;DHT22;11029;47.820;10.534;2022-10-31T02:31:46;7.30;75.60
21734;DHT22;11029;47.820;10.534;2022-10-31T02:34:19;7.30;75.50
21734;DHT22;11029;47.820;10.534;2022-10-31T02:36:58;7.30;76.20
21734;DHT22;11029;47.820;10.534;2022-10-31T02:39:36;7.40;75.70
21734;DHT22;11029;47.820;10.534;2022-10-31T02:42:26;7.50;74.40
21734;DHT22;11029;47.820;10.534;2022-10-31T02:45:10;7.30;74.60
21734;DHT22;11029;47.820;10.534;2022-10-31T02:47:38;7.20;74.70
21734;DHT22;11029;47.820;10.534;2022-10-31T02:50:11;7.20;75.10
21734;DHT22;11029;47.820;10.534;2022-10-31T02:52:39;7.20;75.10
21734;DHT22;11029;47.820;10.534;2022-10-31T02:58:07;7.20;74.80
21734;DHT22;11029;47.820;10.534;2022-10-31T03:04:35;7.10;74.50
21734;DHT22;11029;47.820;10.534;2022-10-31T03:06:39;7.10;75.60
21734;DHT22;11029;47.820;10.534;2022-10-31T03:09:27;7.10;74.20
21734;DHT22;11029;47.820;10.534;2022-10-31T03:12:03;7.10;74.60
21734;DHT22;11029;47.820;10.534;2022-10-31T03:14:41;7.00;74.50
21734;DHT22;11029;47.820;10.534;2022-10-31T03:17:20;7.00;74.90
21734;DHT22;11029;47.820;10.534;2022-10-31T03:19:53;7.00;73.90
21734;DHT22;11029;47.820;10.534;2022-10-31T03:22:22;6.90;75.50
21734;DHT22;11029;47.820;10.534;2022-10-31T03:24:51;7.00;75.80
21734;DHT22;11029;47.820;10.534;2022-10-31T03:27:25;7.10;75.10
21734;DHT22;11029;47.820;10.534;2022-10-31T03:29:56;7.10;74.30
21734;DHT22;11029;47.820;10.534;2022-10-31T03:32:49;7.10;74.20
21734;DHT22;11029;47.820;10.534;2022-10-31T03:35:20;7.00;74.10
21734;DHT22;11029;47.820;10.534;2022-10-31T03:37:49;7.00;73.90
21734;DHT22;11029;47.820;10.534;2022-10-31T03:40:19;7.00;74.30
21734;DHT22;11029;47.820;10.534;2022-10-31T03:43:00;6.90;74.50
21734;DHT22;11029;47.820;10.534;2022-10-31T03:45:31;6.80;75.80
21734;DHT22;11029;47.820;10.534;2022-10-31T03:47:59;6.70;76.50
21734;DHT22;11029;47.820;10.534;2022-10-31T03:50:34;6.70;76.30
21734;DHT22;11029;47.820;10.534;2022-10-31T03:55:56;6.70;75.10
21734;DHT22;11029;47.820;10.534;2022-10-31T03:58:29;6.70;75.20
21734;DHT22;11029;47.820;10.534;2022-10-31T04:01:00;6.70;75.60
21734;DHT22;11029;47.820;10.534;2022-10-31T04:03:33;6.70;76.50
21734;DHT22;11029;47.820;10.534;2022-10-31T04:06:05;6.80;76.00
21734;DHT22;11029;47.820;10.534;2022-10-31T04:08:37;6.80;76.00
21734;DHT22;11029;47.820;10.534;2022-10-31T04:11:07;6.60;76.90
21734;DHT22;11029;47.820;10.534;2022-10-31T04:13:38;6.60;76.60
21734;DHT22;11029;47.820;10.534;2022-10-31T04:16:12;6.60;76.00
21734;DHT22;11029;47.820;10.534;2022-10-31T04:18:43;6.60;75.90
21734;DHT22;11029;47.820;10.534;2022-10-31T04:21:10;6.60;76.90
21734;DHT22;11029;47.820;10.534;2022-10-31T04:23:36;6.70;76.80
21734;DHT22;11029;47.820;10.534;2022-10-31T04:26:13;6.70;76.10
21734;DHT22;11029;47.820;10.534;2022-10-31T04:28:42;6.60;75.40
21734;DHT22;11029;47.820;10.534;2022-10-31T04:31:11;6.60;75.50
21734;DHT22;11029;47.820;10.534;2022-10-31T04:33:38;6.60;74.90
21734;DHT22;11029;47.820;10.534;2022-10-31T04:36:05;6.50;75.30
21734;DHT22;11029;47.820;10.534;2022-10-31T04:38:33;6.50;75.70
21734;DHT22;11029;47.820;10.534;2022-10-31T04:41:03;6.50;76.50
21734;DHT22;11029;47.820;10.534;2022-10-31T04:43:56;6.50;75.60
21734;DHT22;11029;47.820;10.534;2022-10-31T04:46:23;6.50;76.80
21734;DHT22;11029;47.820;10.534;2022-10-31T04:48:50;6.50;77.00
21734;DHT22;11029;47.820;10.534;2022-10-31T04:51:16;6.50;77.40
21734;DHT22;11029;47.820;10.534;2022-10-31T04:53:43;6.50;76.50
21734;DHT22;11029;47.820;10.534;2022-10-31T04:56:29;6.50;75.80
21734;DHT22;11029;47.820;10.534;2022-10-31T04:58:59;6.40;76.10
21734;DHT22;11029;47.820;10.534;2022-10-31T05:01:29;6.40;76.50
21734;DHT22;11029;47.820;10.534;2022-10-31T05:03:58;6.30;75.60
21734;DHT22;11029;47.820;10.534;2022-10-31T05:06:25;6.40;75.10
21734;DHT22;11029;47.820;10.534;2022-10-31T05:08:51;6.30;74.70
21734;DHT22;11029;47.820;10.534;2022-10-31T05:11:19;6.40;74.90
21734;DHT22;11029;47.820;10.534;2022-10-31T05:13:46;6.30;75.20
21734;DHT22;11029;47.820;10.534;2022-10-31T05:16:12;6.30;76.30
21734;DHT22;11029;47.820;10.534;2022-10-31T05:18:48;6.40;76.10
21734;DHT22;11029;47.820;10.534;2022-10-31T05:21:33;6.40;74.30
21734;DHT22;11029;47.820;10.534;2022-10-31T05:24:02;6.40;74.20
21734;DHT22;11029;47.820;10.534;2022-10-31T05:26:30;6.20;74.90
21734;DHT22;11029;47.820;10.534;2022-10-31T05:28:56;6.20;75.50
21734;DHT22;11029;47.820;10.534;2022-10-31T05:31:23;6.10;77.50
21734;DHT22;11029;47.820;10.534;2022-10-31T05:33:51;6.10;77.00
21734;DHT22;11029;47.820;10.534;2022-10-31T05:36:44;6.10;75.70
21734;DHT22;11029;47.820;10.534;2022-10-31T05:39:14;6.10;75.30
21734;DHT22;11029;47.820;10.534;2022-10-31T05:41:46;6.10;75.00
21734;DHT22;11029;47.820;10.534;2022-10-31T05:44:18;6.00;75.30
21734;DHT22;11029;47.820;10.534;2022-10-31T05:46:57;6.10;75.70
21734;DHT22;11029;47.820;10.534;2022-10-31T05:49:36;6.10;75.10
21734;DHT22;11029;47.820;10.534;2022-10-31T05:52:21;6.00;74.80
21734;DHT22;11029;47.820;10.534;2022-10-31T05:54:55;6.00;74.80
21734;DHT22;11029;47.820;10.534;2022-10-31T05:57:21;5.90;75.60
21734;DHT22;11029;47.820;10.534;2022-10-31T05:59:48;5.90;76.30
21734;DHT22;11029;47.820;10.534;2022-10-31T06:02:21;6.00;76.40
21734;DHT22;11029;47.820;10.534;2022-10-31T06:05:18;6.00;75.20
21734;DHT22;11029;47.820;10.534;2022-10-31T06:07:45;5.90;75.50
21734;DHT22;11029;47.820;10.534;2022-10-31T06:10:12;6.00;75.50
21734;DHT22;11029;47.820;10.534;2022-10-31T06:12:39;6.00;75.70
21734;DHT22;11029;47.820;10.534;2022-10-31T06:15:16;6.00;76.30
21734;DHT22;11029;47.820;10.534;2022-10-31T06:18:03;6.00;75.70
21734;DHT22;11029;47.820;10.534;2022-10-31T06:20:34;6.00;76.30
21734;DHT22;11029;47.820;10.534;2022-10-31T06:23:03;6.00;76.00
21734;DHT22;11029;47.820;10.534;2022-10-31T06:25:32;6.10;74.70
21734;DHT22;11029;47.820;10.534;2022-10-31T06:27:59;6.10;75.10
21734;DHT22;11029;47.820;10.534;2022-10-31T06:30:46;6.00;76.10
21734;DHT22;11029;47.820;10.534;2022-10-31T06:33:14;5.90;76.10
21734;DHT22;11029;47.820;10.534;2022-10-31T06:35:48;5.90;77.50
21734;DHT22;11029;47.820;10.534;2022-10-31T06:38:17;6.00;77.50
21734;DHT22;11029;47.820;10.534;2022-10-31T06:40:44;6.10;77.40
21734;DHT22;11029;47.820;10.534;2022-10-31T06:43:20;6.20;77.60
21734;DHT22;11029;47.820;10.534;2022-10-31T06:45:49;6.30;76.80
21734;DHT22;11029;47.820;10.534;2022-10-31T06:48:37;6.30;76.00
21734;DHT22;11029;47.820;10.534;2022-10-31T06:51:33;6.30;76.10
21734;DHT22;11029;47.820;10.534;2022-10-31T06:54:01;6.40;76.90
21734;DHT22;11029;47.820;10.534;2022-10-31T06:56:28;6.50;76.00
21734;DHT22;11029;47.820;10.534;2022-10-31T06:58:56;6.50;76.50
21734;DHT22;11029;47.820;10.534;2022-10-31T07:01:43;6.60;76.70
21734;DHT22;11029;47.820;10.534;2022-10-31T07:04:10;6.70;76.20
21734;DHT22;11029;47.820;10.534;2022-10-31T07:06:38;6.80;75.90
21734;DHT22;11029;47.820;10.534;2022-10-31T07:09:05;7.00;75.60
21734;DHT22;11029;47.820;10.534;2022-10-31T07:11:31;7.10;75.60
21734;DHT22;11029;47.820;10.534;2022-10-31T07:13:59;7.30;76.20
21734;DHT22;11029;47.820;10.534;2022-10-31T07:16:26;7.50;75.40
21734;DHT22;11029;47.820;10.534;2022-10-31T07:18:52;7.70;74.70
21734;DHT22;11029;47.820;10.534;2022-10-31T07:21:20;7.80;74.90
21734;DHT22;11029;47.820;10.534;2022-10-31T07:23:50;8.00;74.70
21734;DHT22;11029;47.820;10.534;2022-10-31T07:26:37;8.10;74.50
21734;DHT22;11029;47.820;10.534;2022-10-31T07:29:03;8.20;75.40
21734;DHT22;11029;47.820;10.534;2022-10-31T07:31:30;8.20;76.10
21734;DHT22;11029;47.820;10.534;2022-10-31T07:34:03;8.20;77.10
21734;DHT22;11029;47.820;10.534;2022-10-31T07:36:50;8.40;76.30
21734;DHT22;11029;47.820;10.534;2022-10-31T07:39:17;8.40;76.00
21734;DHT22;11029;47.820;10.534;2022-10-31T07:41:45;8.50;76.50
21734;DHT22;11029;47.820;10.534;2022-10-31T07:44:16;8.70;76.20
21734;DHT22;11029;47.820;10.534;2022-10-31T07:47:02;8.80;76.30
21734;DHT22;11029;47.820;10.534;2022-10-31T07:49:47;9.10;75.50
21734;DHT22;11029;47.820;10.534;2022-10-31T07:52:33;9.20;75.40
21734;DHT22;11029;47.820;10.534;2022-10-31T07:55:18;9.40;75.70
21734;DHT22;11029;47.820;10.534;2022-10-31T07:57:55;9.60;75.10
21734;DHT22;11029;47.820;10.534;2022-10-31T08:00:22;9.80;73.80
21734;DHT22;11029;47.820;10.534;2022-10-31T08:02:59;9.90;74.30
21734;DHT22;11029;47.820;10.534;2022-10-31T08:05:46;10.10;73.70
21734;DHT22;11029;47.820;10.534;2022-10-31T08:08:31;10.30;70.90
21734;DHT22;11029;47.820;10.534;2022-10-31T08:11:05;10.30;70.80
21734;DHT22;11029;47.820;10.534;2022-10-31T08:13:32;10.40;71.30
21734;DHT22;11029;47.820;10.534;2022-10-31T08:15:58;10.60;70.20
21734;DHT22;11029;47.820;10.534;2022-10-31T08:18:33;10.80;69.90
21734;DHT22;11029;47.820;10.534;2022-10-31T08:21:00;11.00;69.60
21734;DHT22;11029;47.820;10.534;2022-10-31T08:23:26;11.20;69.60
21734;DHT22;11029;47.820;10.534;2022-10-31T08:25:54;11.40;69.30
21734;DHT22;11029;47.820;10.534;2022-10-31T08:28:22;11.70;68.40
21734;DHT22;11029;47.820;10.534;2022-10-31T08:30:50;11.90;67.70
21734;DHT22;11029;47.820;10.534;2022-10-31T08:33:35;12.20;66.70
21734;DHT22;11029;47.820;10.534;2022-10-31T08:36:17;12.30;65.20
21734;DHT22;11029;47.820;10.534;2022-10-31T08:39:03;12.50;64.30
21734;DHT22;11029;47.820;10.534;2022-10-31T08:41:30;12.60;64.70
21734;DHT22;11029;47.820;10.534;2022-10-31T08:43:58;12.80;64.40
21734;DHT22;11029;47.820;10.534;2022-10-31T08:46:25;12.80;62.30
21734;DHT22;11029;47.820;10.534;2022-10-31T08:48:52;12.90;61.70
21734;DHT22;11029;47.820;10.534;2022-10-31T08:51:19;13.00;61.60
21734;DHT22;11029;47.820;10.534;2022-10-31T08:53:50;13.20;60.90
21734;DHT22;11029;47.820;10.534;2022-10-31T08:56:31;13.30;61.00
21734;DHT22;11029;47.820;10.534;2022-10-31T08:59:00;13.40;60.70
21734;DHT22;11029;47.820;10.534;2022-10-31T09:02:03;13.50;60.40
21734;DHT22;11029;47.820;10.534;2022-10-31T09:04:29;13.50;60.00
21734;DHT22;11029;47.820;10.534;2022-10-31T09:06:56;13.50;60.10
21734;DHT22;11029;47.820;10.534;2022-10-31T09:09:43;13.60;60.40
21734;DHT22;11029;47.820;10.534;2022-10-31T09:12:10;13.80;59.50
21734;DHT22;11029;47.820;10.534;2022-10-31T09:14:52;13.90;59.20
21734;DHT22;11029;47.820;10.534;2022-10-31T09:17:24;14.00;58.80
21734;DHT22;11029;47.820;10.534;2022-10-31T09:20:13;14.10;58.30
21734;DHT22;11029;47.820;10.534;2022-10-31T09:22:40;14.10;57.80
21734;DHT22;11029;47.820;10.534;2022-10-31T09:25:07;14.10;57.90
21734;DHT22;11029;47.820;10.534;2022-10-31T09:27:34;14.10;58.70
21734;DHT22;11029;47.820;10.534;2022-10-31T09:30:01;14.10;59.00
21734;DHT22;11029;47.820;10.534;2022-10-31T09:32:28;14.10;59.00
21734;DHT22;11029;47.820;10.534;2022-10-31T09:34:55;14.20;58.80
21734;DHT22;11029;47.820;10.534;2022-10-31T09:37:22;14.30;58.80
21734;DHT22;11029;47.820;10.534;2022-10-31T09:39:50;14.50;58.90
21734;DHT22;11029;47.820;10.534;2022-10-31T09:42:45;14.60;58.50
21734;DHT22;11029;47.820;10.534;2022-10-31T09:51:24;15.10;58.80
21734;DHT22;11029;47.820;10.534;2022-10-31T09:54:16;15.30;58.30
21734;DHT22;11029;47.820;10.534;2022-10-31T09:56:44;15.40;57.50
21734;DHT22;11029;47.820;10.534;2022-10-31T09:59:18;15.60;56.50
21734;DHT22;11029;47.820;10.534;2022-10-31T10:01:55;15.70;56.30
21734;DHT22;11029;47.820;10.534;2022-10-31T10:04:31;15.60;56.20
21734;DHT22;11029;47.820;10.534;2022-10-31T10:10:57;15.60;55.10
21734;DHT22;11029;47.820;10.534;2022-10-31T10:22:19;15.50;56.40
21734;DHT22;11029;47.820;10.534;2022-10-31T10:30:41;15.60;56.90
21734;DHT22;11029;47.820;10.534;2022-10-31T10:33:20;15.70;56.20
21734;DHT22;11029;47.820;10.534;2022-10-31T10:35:52;15.70;56.50
21734;DHT22;11029;47.820;10.534;2022-10-31T10:38:49;15.80;56.90
21734;DHT22;11029;47.820;10.534;2022-10-31T10:41:22;15.80;57.30
21734;DHT22;11029;47.820;10.534;2022-10-31T10:43:50;15.90;57.50
21734;DHT22;11029;47.820;10.534;2022-10-31T10:46:40;16.00;57.60
21734;DHT22;11029;47.820;10.534;2022-10-31T10:51:59;16.00;57.50
21734;DHT22;11029;47.820;10.534;2022-10-31T10:54:59;16.10;57.40
21734;DHT22;11029;47.820;10.534;2022-10-31T10:57:58;16.20;57.70
21734;DHT22;11029;47.820;10.534;2022-10-31T11:00:42;16.30;58.30
21734;DHT22;11029;47.820;10.534;2022-10-31T11:03:09;16.40;59.00
21734;DHT22;11029;47.820;10.534;2022-10-31T11:05:56;16.60;59.40
21734;DHT22;11029;47.820;10.534;2022-10-31T11:08:33;16.80;58.80
21734;DHT22;11029;47.820;10.534;2022-10-31T11:11:25;16.80;59.10
21734;DHT22;11029;47.820;10.534;2022-10-31T11:14:14;16.90;58.40
21734;DHT22;11029;47.820;10.534;2022-10-31T11:16:46;17.00;59.10
21734;DHT22;11029;47.820;10.534;2022-10-31T11:21:47;17.40;58.30
21734;DHT22;11029;47.820;10.534;2022-10-31T11:24:24;17.50;57.70
21734;DHT22;11029;47.820;10.534;2022-10-31T11:29:38;17.80;56.50
21734;DHT22;11029;47.820;10.534;2022-10-31T11:32:05;17.90;56.40
21734;DHT22;11029;47.820;10.534;2022-10-31T11:34:37;17.80;55.10
21734;DHT22;11029;47.820;10.534;2022-10-31T11:39:43;18.00;54.80
21734;DHT22;11029;47.820;10.534;2022-10-31T11:42:11;18.10;54.30
21734;DHT22;11029;47.820;10.534;2022-10-31T11:44:42;18.20;54.60
21734;DHT22;11029;47.820;10.534;2022-10-31T11:47:14;18.20;54.70
21734;DHT22;11029;47.820;10.534;2022-10-31T11:49:43;18.20;54.20
21734;DHT22;11029;47.820;10.534;2022-10-31T11:54:48;18.10;54.90
21734;DHT22;11029;47.820;10.534;2022-10-31T11:57:31;18.10;54.70
21734;DHT22;11029;47.820;10.534;2022-10-31T12:00:03;18.00;56.10
21734;DHT22;11029;47.820;10.534;2022-10-31T12:02:37;18.00;55.40
21734;DHT22;11029;47.820;10.534;2022-10-31T12:05:23;18.00;55.60
21734;DHT22;11029;47.820;10.534;2022-10-31T12:07:51;18.10;55.40
21734;DHT22;11029;47.820;10.534;2022-10-31T12:10:21;18.20;54.90
21734;DHT22;11029;47.820;10.534;2022-10-31T12:15:32;18.20;54.30
21734;DHT22;11029;47.820;10.534;2022-10-31T12:18:24;18.20;54.70
21734;DHT22;11029;47.820;10.534;2022-10-31T12:21:34;18.20;53.70
21734;DHT22;11029;47.820;10.534;2022-10-31T12:37:40;19.30;52.80
21734;DHT22;11029;47.820;10.534;2022-10-31T12:40:27;19.60;52.70
21734;DHT22;11029;47.820;10.534;2022-10-31T12:43:24;19.80;52.40
21734;DHT22;11029;47.820;10.534;2022-10-31T12:45:59;20.10;51.70
21734;DHT22;11029;47.820;10.534;2022-10-31T12:51:29;20.60;49.70
21734;DHT22;11029;47.820;10.534;2022-10-31T12:59:43;21.00;48.90
21734;DHT22;11029;47.820;10.534;2022-10-31T13:02:22;21.10;48.90
21734;DHT22;11029;47.820;10.534;2022-10-31T13:04:56;21.20;48.40
21734;DHT22;11029;47.820;10.534;2022-10-31T13:10:25;20.90;47.70
21734;DHT22;11029;47.820;10.534;2022-10-31T13:12:54;20.70;48.90
21734;DHT22;11029;47.820;10.534;2022-10-31T13:15:30;20.60;48.70
21734;DHT22;11029;47.820;10.534;2022-10-31T13:18:11;20.60;50.30
21734;DHT22;11029;47.820;10.534;2022-10-31T13:20:42;20.90;49.00
21734;DHT22;11029;47.820;10.534;2022-10-31T13:23:16;21.10;48.70
21734;DHT22;11029;47.820;10.534;2022-10-31T13:26:10;21.20;49.40
21734;DHT22;11029;47.820;10.534;2022-10-31T13:28:48;21.30;51.30
21734;DHT22;11029;47.820;10.534;2022-10-31T13:31:20;21.30;50.30
21734;DHT22;11029;47.820;10.534;2022-10-31T13:33:53;21.10;50.90
21734;DHT22;11029;47.820;10.534;2022-10-31T13:36:37;20.90;51.90
21734;DHT22;11029;47.820;10.534;2022-10-31T13:39:38;21.00;51.50
21734;DHT22;11029;47.820;10.534;2022-10-31T13:42:25;21.90;49.80
21734;DHT22;11029;47.820;10.534;2022-10-31T13:44:55;23.10;47.10
21734;DHT22;11029;47.820;10.534;2022-10-31T13:47:33;22.90;46.50
21734;DHT22;11029;47.820;10.534;2022-10-31T13:50:20;22.50;47.60
21734;DHT22;11029;47.820;10.534;2022-10-31T13:52:47;22.60;48.80
21734;DHT22;11029;47.820;10.534;2022-10-31T13:55:35;23.10;48.60
21734;DHT22;11029;47.820;10.534;2022-10-31T13:58:23;23.20;48.50
21734;DHT22;11029;47.820;10.534;2022-10-31T14:03:26;21.60;52.40
21734;DHT22;11029;47.820;10.534;2022-10-31T14:06:15;21.10;53.70
21734;DHT22;11029;47.820;10.534;2022-10-31T14:08:49;20.50;55.00
21734;DHT22;11029;47.820;10.534;2022-10-31T14:11:26;20.20;56.20
21734;DHT22;11029;47.820;10.534;2022-10-31T14:14:01;20.10;57.20
21734;DHT22;11029;47.820;10.534;2022-10-31T14:16:32;21.00;55.00
21734;DHT22;11029;47.820;10.534;2022-10-31T14:19:07;22.00;52.30
21734;DHT22;11029;47.820;10.534;2022-10-31T14:21:41;23.50;49.30
21734;DHT22;11029;47.820;10.534;2022-10-31T14:29:31;29.50;38.50
21734;DHT22;11029;47.820;10.534;2022-10-31T14:40:27;32.50;34.00
21734;DHT22;11029;47.820;10.534;2022-10-31T14:46:58;32.50;33.30
21734;DHT22;11029;47.820;10.534;2022-10-31T14:49:10;32.60;32.60
21734;DHT22;11029;47.820;10.534;2022-10-31T14:51:41;32.70;33.30
21734;DHT22;11029;47.820;10.534;2022-10-31T14:54:24;32.70;33.20
21734;DHT22;11029;47.820;10.534;2022-10-31T14:57:05;32.20;33.60
21734;DHT22;11029;47.820;10.534;2022-10-31T14:59:36;31.80;33.70
21734;DHT22;11029;47.820;10.534;2022-10-31T15:02:09;31.50;33.80
21734;DHT22;11029;47.820;10.534;2022-10-31T15:04:39;31.20;34.20
21734;DHT22;11029;47.820;10.534;2022-10-31T15:09:40;30.90;34.30
21734;DHT22;11029;47.820;10.534;2022-10-31T15:12:30;30.50;35.10
21734;DHT22;11029;47.820;10.534;2022-10-31T15:15:10;30.20;35.70
21734;DHT22;11029;47.820;10.534;2022-10-31T15:17:45;30.00;35.80
21734;DHT22;11029;47.820;10.534;2022-10-31T15:20:41;29.40;36.30
21734;DHT22;11029;47.820;10.534;2022-10-31T15:23:11;28.10;37.80
21734;DHT22;11029;47.820;10.534;2022-10-31T15:25:41;26.40;40.30
21734;DHT22;11029;47.820;10.534;2022-10-31T15:28:20;24.60;43.50
21734;DHT22;11029;47.820;10.534;2022-10-31T15:30:53;23.30;46.10
21734;DHT22;11029;47.820;10.534;2022-10-31T15:33:25;22.20;48.90
21734;DHT22;11029;47.820;10.534;2022-10-31T15:36:19;21.30;51.10
21734;DHT22;11029;47.820;10.534;2022-10-31T15:38:55;20.40;53.60
21734;DHT22;11029;47.820;10.534;2022-10-31T15:41:33;19.70;55.30
21734;DHT22;11029;47.820;10.534;2022-10-31T15:44:06;19.20;57.10
21734;DHT22;11029;47.820;10.534;2022-10-31T15:46:33;18.90;58.30
21734;DHT22;11029;47.820;10.534;2022-10-31T15:49:00;18.60;58.80
21734;DHT22;11029;47.820;10.534;2022-10-31T15:51:32;18.20;59.70
21734;DHT22;11029;47.820;10.534;2022-10-31T15:54:00;17.90;60.70
21734;DHT22;11029;47.820;10.534;2022-10-31T15:56:30;17.50;62.20
21734;DHT22;11029;47.820;10.534;2022-10-31T15:58:58;17.30;64.00
21734;DHT22;11029;47.820;10.534;2022-10-31T16:01:31;17.00;65.30
21734;DHT22;11029;47.820;10.534;2022-10-31T16:06:37;16.50;65.20
21734;DHT22;11029;47.820;10.534;2022-10-31T16:09:21;16.20;66.60
21734;DHT22;11029;47.820;10.534;2022-10-31T16:11:48;16.00;65.40
21734;DHT22;11029;47.820;10.534;2022-10-31T16:14:18;15.80;65.90
21734;DHT22;11029;47.820;10.534;2022-10-31T16:16:53;15.60;67.10
21734;DHT22;11029;47.820;10.534;2022-10-31T16:19:28;15.50;67.40
21734;DHT22;11029;47.820;10.534;2022-10-31T16:22:08;15.20;68.60
21734;DHT22;11029;47.820;10.534;2022-10-31T16:25:02;15.10;68.40
21734;DHT22;11029;47.820;10.534;2022-10-31T16:27:32;15.00;68.60
21734;DHT22;11029;47.820;10.534;2022-10-31T16:30:01;14.80;67.70
21734;DHT22;11029;47.820;10.534;2022-10-31T16:35:37;14.50;68.60
21734;DHT22;11029;47.820;10.534;2022-10-31T16:38:05;14.40;68.90
21734;DHT22;11029;47.820;10.534;2022-10-31T16:40:32;14.20;69.20
21734;DHT22;11029;47.820;10.534;2022-10-31T16:43:00;14.10;69.70
21734;DHT22;11029;47.820;10.534;2022-10-31T16:45:30;14.10;69.20
21734;DHT22;11029;47.820;10.534;2022-10-31T16:48:05;14.00;69.20
21734;DHT22;11029;47.820;10.534;2022-10-31T16:50:32;13.90;69.20
21734;DHT22;11029;47.820;10.534;2022-10-31T16:52:59;13.70;69.80
21734;DHT22;11029;47.820;10.534;2022-10-31T16:55:54;13.50;70.50
21734;DHT22;11029;47.820;10.534;2022-10-31T16:58:24;13.40;70.60
21734;DHT22;11029;47.820;10.534;2022-10-31T17:00:52;13.30;70.50
21734;DHT22;11029;47.820;10.534;2022-10-31T17:03:19;13.30;71.30
21734;DHT22;11029;47.820;10.534;2022-10-31T17:05:46;13.20;71.20
21734;DHT22;11029;47.820;10.534;2022-10-31T17:08:13;13.10;71.30
21734;DHT22;11029;47.820;10.534;2022-10-31T17:10:41;13.10;71.20
21734;DHT22;11029;47.820;10.534;2022-10-31T17:13:19;13.00;71.40
21734;DHT22;11029;47.820;10.534;2022-10-31T17:15:49;12.90;70.70
21734;DHT22;11029;47.820;10.534;2022-10-31T17:18:17;12.80;71.60
21734;DHT22;11029;47.820;10.534;2022-10-31T17:20:56;12.70;71.70
21734;DHT22;11029;47.820;10.534;2022-10-31T17:23:25;12.60;72.10
21734;DHT22;11029;47.820;10.534;2022-10-31T17:25:52;12.60;71.60
21734;DHT22;11029;47.820;10.534;2022-10-31T17:28:18;12.50;71.20
21734;DHT22;11029;47.820;10.534;2022-10-31T17:30:45;12.40;71.50
21734;DHT22;11029;47.820;10.534;2022-10-31T17:33:13;12.20;71.30
21734;DHT22;11029;47.820;10.534;2022-10-31T17:35:42;12.10;71.50
21734;DHT22;11029;47.820;10.534;2022-10-31T17:38:10;12.00;72.00
21734;DHT22;11029;47.820;10.534;2022-10-31T17:40:38;12.00;72.00
21734;DHT22;11029;47.820;10.534;2022-10-31T17:43:08;11.90;72.10
21734;DHT22;11029;47.820;10.534;2022-10-31T17:45:38;11.90;72.30
21734;DHT22;11029;47.820;10.534;2022-10-31T17:48:05;11.90;72.40
21734;DHT22;11029;47.820;10.534;2022-10-31T17:50:32;11.80;72.10
21734;DHT22;11029;47.820;10.534;2022-10-31T17:52:59;11.70;72.50